createdAt,value
2017-09-29T00:01:45.396Z,70.67
2017-09-29T00:04:12.968Z,74.27
2017-09-29T00:06:40.621Z,61.83
2017-09-29T00:09:08.220Z,70.50
2017-09-29T00:11:35.844Z,66.43
2017-09-29T00:14:04.764Z,61.88
2017-09-29T00:16:33.096Z,72.03
2017-09-29T00:19:01.865Z,75.20
2017-09-29T00:21:29.460Z,72.63
2017-09-29T00:23:57.072Z,68.53
2017-09-29T00:26:24.646Z,57.33
2017-09-29T00:28:52.252Z,56.67
2017-09-29T00:31:20.653Z,53.03
2017-09-29T00:33:49.009Z,57.30
2017-09-29T00:36:16.672Z,60.83
2017-09-29T00:38:45.038Z,58.30
2017-09-29T00:41:13.024Z,66.55
2017-09-29T00:43:40.616Z,61.20
2017-09-29T00:46:08.188Z,60.70
2017-09-29T00:48:35.784Z,60.10
2017-09-29T00:51:04.687Z,63.20
2017-09-29T00:53:32.292Z,65.93
2017-09-29T00:55:59.912Z,63.73
2017-09-29T00:58:27.505Z,60.27
2017-09-29T01:00:55.841Z,62.90
2017-09-29T01:03:23.624Z,58.87
2017-09-29T01:05:52.005Z,61.47
2017-09-29T01:08:19.600Z,60.08
2017-09-29T01:10:47.206Z,59.53
2017-09-29T01:13:14.905Z,60.22
2017-09-29T01:15:43.533Z,67.57
2017-09-29T01:18:11.328Z,62.62
2017-09-29T01:20:40.805Z,65.37
2017-09-29T01:23:09.288Z,61.20
2017-09-29T01:25:37.050Z,63.83
2017-09-29T01:28:04.669Z,67.23
2017-09-29T01:30:33.005Z,57.83
2017-09-29T01:33:01.928Z,69.53
2017-09-29T01:35:29.592Z,68.80
2017-09-29T01:37:57.960Z,72.30
2017-09-29T01:40:25.551Z,66.80
2017-09-29T01:42:53.884Z,66.97
2017-09-29T01:45:21.484Z,56.07
2017-09-29T01:47:49.824Z,63.60
2017-09-29T01:50:17.428Z,69.93
2017-09-29T01:52:45.765Z,66.13
2017-09-29T01:55:13.360Z,65.45
2017-09-29T01:57:41.696Z,69.93
2017-09-29T02:00:09.489Z,64.27
2017-09-29T02:02:38.565Z,79.00
2017-09-29T02:05:06.260Z,65.60
2017-09-29T02:07:34.625Z,64.90
2017-09-29T02:10:04.004Z,58.42
2017-09-29T02:12:31.610Z,69.53
2017-09-29T02:15:00.879Z,68.03
2017-09-29T02:17:28.473Z,69.63
2017-09-29T02:19:56.804Z,72.90
2017-09-29T02:22:24.436Z,72.17
2017-09-29T02:24:52.057Z,72.10
2017-09-29T02:27:19.629Z,75.72
2017-09-29T02:29:47.989Z,81.73
2017-09-29T02:32:15.569Z,76.25
2017-09-29T02:34:43.937Z,82.25
2017-09-29T02:37:11.512Z,74.30
2017-09-29T02:39:39.877Z,72.50
2017-09-29T02:42:07.449Z,72.07
2017-09-29T02:44:35.824Z,83.17
2017-09-29T02:47:04.793Z,79.12
2017-09-29T02:49:32.472Z,78.53
2017-09-29T02:52:00.041Z,74.93
2017-09-29T02:54:28.395Z,72.30
2017-09-29T02:56:58.452Z,71.10
2017-09-29T02:59:28.549Z,69.00
2017-09-29T03:01:58.284Z,63.50
2017-09-29T03:04:27.276Z,72.50
2017-09-29T03:06:55.640Z,65.67
2017-09-29T03:09:23.981Z,69.80
2017-09-29T03:11:51.660Z,69.40
2017-09-29T03:14:19.367Z,68.47
2017-09-29T03:16:46.981Z,69.37
2017-09-29T03:19:14.553Z,78.50
2017-09-29T03:21:43.638Z,79.90
2017-09-29T03:24:11.236Z,87.40
2017-09-29T03:26:39.569Z,82.40
2017-09-29T03:29:07.266Z,81.57
2017-09-29T03:31:35.609Z,76.70
2017-09-29T03:34:04.856Z,76.90
2017-09-29T03:36:33.193Z,89.70
2017-09-29T03:39:03.011Z,83.35
2017-09-29T03:41:30.603Z,82.87
2017-09-29T03:43:58.940Z,85.00
2017-09-29T03:46:26.536Z,81.43
2017-09-29T03:48:55.812Z,75.77
2017-09-29T03:51:24.159Z,83.63
2017-09-29T03:53:52.316Z,74.80
2017-09-29T03:56:20.516Z,72.07
2017-09-29T03:58:51.668Z,80.53
2017-09-29T04:01:19.264Z,76.70
2017-09-29T04:03:46.831Z,77.47
2017-09-29T04:06:14.423Z,80.00
2017-09-29T04:08:41.988Z,82.50
2017-09-29T04:11:09.708Z,80.97
2017-09-29T04:13:37.372Z,91.60
2017-09-29T04:16:04.952Z,79.87
2017-09-29T04:18:33.311Z,89.10
2017-09-29T04:21:02.095Z,81.37
2017-09-29T04:23:31.226Z,79.13
2017-09-29T04:25:59.561Z,86.03
2017-09-29T04:28:27.165Z,70.20
2017-09-29T04:30:55.498Z,71.10
2017-09-29T04:33:23.112Z,75.27
2017-09-29T04:35:50.684Z,74.10
2017-09-29T04:38:18.301Z,76.87
2017-09-29T04:40:45.965Z,82.70
2017-09-29T04:43:13.545Z,88.47
2017-09-29T04:45:42.004Z,93.00
2017-09-29T04:48:11.080Z,93.83
2017-09-29T04:50:38.865Z,88.10
2017-09-29T04:53:06.535Z,97.60
2017-09-29T04:55:34.100Z,90.20
2017-09-29T04:58:03.908Z,87.75
2017-09-29T05:00:31.573Z,87.10
2017-09-29T05:03:00.875Z,85.40
2017-09-29T05:05:28.445Z,77.57
2017-09-29T05:07:57.009Z,92.87
2017-09-29T05:10:24.577Z,73.60
2017-09-29T05:12:52.920Z,84.53
2017-09-29T05:15:20.516Z,62.95
2017-09-29T05:17:48.847Z,78.23
2017-09-29T05:20:16.558Z,65.43
2017-09-29T05:22:44.129Z,70.13
2017-09-29T05:25:12.809Z,67.75
2017-09-29T05:27:41.148Z,69.20
2017-09-29T05:30:08.739Z,59.55
2017-09-29T05:32:36.409Z,61.60
2017-09-29T05:35:04.761Z,59.40
2017-09-29T05:37:32.444Z,75.67
2017-09-29T05:40:00.017Z,67.17
2017-09-29T05:42:28.491Z,59.37
2017-09-29T05:44:57.567Z,64.00
2017-09-29T05:47:25.453Z,64.73
2017-09-29T05:49:53.028Z,56.80
2017-09-29T05:52:21.393Z,57.15
2017-09-29T05:54:48.993Z,56.20
2017-09-29T05:57:16.570Z,63.27
2017-09-29T05:59:44.924Z,61.90
2017-09-29T06:02:12.537Z,72.17
2017-09-29T06:04:40.132Z,59.27
2017-09-29T06:07:08.473Z,66.27
2017-09-29T06:09:36.067Z,62.77
2017-09-29T06:12:04.745Z,57.43
2017-09-29T06:14:32.604Z,63.90
2017-09-29T06:17:00.273Z,56.13
2017-09-29T06:19:28.652Z,54.47
2017-09-29T06:21:57.016Z,66.28
2017-09-29T06:24:24.588Z,64.50
2017-09-29T06:26:53.785Z,60.93
2017-09-29T06:29:21.359Z,61.20
2017-09-29T06:31:49.700Z,60.50
2017-09-29T06:34:17.300Z,58.30
2017-09-29T06:36:45.640Z,62.87
2017-09-29T06:39:13.337Z,54.50
2017-09-29T06:41:40.908Z,55.97
2017-09-29T06:44:09.276Z,54.30
2017-09-29T06:46:36.848Z,50.57
2017-09-29T06:49:05.311Z,49.17
2017-09-29T06:51:33.159Z,46.80
2017-09-29T06:54:02.769Z,45.20
2017-09-29T06:56:30.556Z,42.73
2017-09-29T06:58:58.128Z,41.15
2017-09-29T07:01:26.496Z,35.10
2017-09-29T07:03:54.108Z,35.80
2017-09-29T07:06:21.683Z,37.43
2017-09-29T07:08:49.280Z,43.80
2017-09-29T07:11:16.888Z,46.47
2017-09-29T07:13:44.456Z,43.20
2017-09-29T07:16:12.060Z,43.30
2017-09-29T07:18:39.724Z,42.20
2017-09-29T07:21:07.390Z,41.53
2017-09-29T07:23:35.056Z,36.67
2017-09-29T07:26:07.202Z,44.17
2017-09-29T07:28:36.237Z,42.73
2017-09-29T07:31:08.657Z,41.93
2017-09-29T07:33:36.240Z,39.73
2017-09-29T07:36:04.628Z,41.40
2017-09-29T07:38:32.289Z,48.33
2017-09-29T07:40:59.956Z,40.90
2017-09-29T07:43:27.532Z,41.00
2017-09-29T07:45:55.968Z,44.27
2017-09-29T07:48:23.533Z,45.00
2017-09-29T07:50:51.320Z,46.63
2017-09-29T07:53:19.656Z,38.40
2017-09-29T07:55:47.220Z,42.30
2017-09-29T07:58:14.815Z,40.88
2017-09-29T08:00:42.388Z,36.20
2017-09-29T08:03:10.756Z,39.50
2017-09-29T08:05:38.332Z,35.37
2017-09-29T08:08:06.983Z,30.80
2017-09-29T08:10:34.571Z,30.30
2017-09-29T08:13:04.687Z,30.37
2017-09-29T08:15:33.025Z,24.97
2017-09-29T08:18:01.843Z,23.83
2017-09-29T08:20:30.915Z,23.30
2017-09-29T08:22:58.512Z,29.10
2017-09-29T08:25:26.856Z,30.05
2017-09-29T08:27:54.651Z,25.33
2017-09-29T08:30:22.229Z,21.00
2017-09-29T08:32:50.596Z,20.53
2017-09-29T08:35:18.196Z,29.13
2017-09-29T08:37:45.769Z,23.90
2017-09-29T08:40:13.368Z,19.90
2017-09-29T08:42:40.938Z,24.63
2017-09-29T08:45:08.545Z,22.77
2017-09-29T08:47:36.117Z,22.17
2017-09-29T08:50:04.128Z,26.30
2017-09-29T08:52:31.702Z,22.57
2017-09-29T08:55:01.842Z,26.83
2017-09-29T08:57:29.420Z,26.23
2017-09-29T08:59:57.031Z,27.10
2017-09-29T09:02:24.637Z,24.73
2017-09-29T09:04:52.216Z,23.60
2017-09-29T09:07:19.812Z,22.85
2017-09-29T09:09:47.384Z,28.10
2017-09-29T09:12:15.752Z,28.15
2017-09-29T09:14:43.337Z,28.23
2017-09-29T09:17:11.700Z,32.97
2017-09-29T09:19:39.272Z,30.67
2017-09-29T09:22:07.736Z,30.00
2017-09-29T09:24:35.376Z,26.60
2017-09-29T09:27:05.008Z,29.80
2017-09-29T09:29:32.596Z,30.40
2017-09-29T09:32:01.973Z,31.53
2017-09-29T09:34:29.552Z,30.70
2017-09-29T09:36:57.907Z,25.80
2017-09-29T09:39:25.496Z,25.80
2017-09-29T09:41:53.827Z,28.37
2017-09-29T09:44:21.425Z,28.33
2017-09-29T09:46:49.788Z,27.70
2017-09-29T09:49:18.148Z,29.12
2017-09-29T09:51:45.733Z,26.77
2017-09-29T09:54:14.101Z,25.30
2017-09-29T09:56:42.445Z,30.23
2017-09-29T09:59:10.041Z,26.23
2017-09-29T10:01:37.620Z,23.42
2017-09-29T10:04:06.012Z,25.70
2017-09-29T10:06:34.354Z,26.30
2017-09-29T10:09:03.752Z,25.20
2017-09-29T10:11:31.349Z,27.37
2017-09-29T10:13:59.684Z,22.80
2017-09-29T10:16:27.301Z,22.73
2017-09-29T10:18:55.648Z,24.80
2017-09-29T10:21:23.320Z,29.00
2017-09-29T10:23:51.692Z,26.95
2017-09-29T10:26:19.269Z,29.10
2017-09-29T10:28:47.640Z,26.43
2017-09-29T10:31:15.300Z,26.77
2017-09-29T10:33:42.960Z,28.35
2017-09-29T10:36:10.533Z,31.40
2017-09-29T10:38:39.104Z,28.37
2017-09-29T10:41:06.671Z,25.80
2017-09-29T10:43:34.249Z,28.80
2017-09-29T10:46:03.945Z,28.50
2017-09-29T10:48:32.313Z,27.63
2017-09-29T10:50:59.984Z,28.37
2017-09-29T10:53:27.572Z,29.37
2017-09-29T10:55:55.211Z,35.37
2017-09-29T10:58:23.548Z,33.20
2017-09-29T11:00:51.244Z,32.53
2017-09-29T11:03:20.340Z,28.37
2017-09-29T11:05:47.936Z,34.63
2017-09-29T11:08:15.520Z,25.07
2017-09-29T11:10:43.115Z,31.70
2017-09-29T11:13:10.699Z,30.40
2017-09-29T11:15:39.055Z,28.17
2017-09-29T11:18:06.728Z,32.93
2017-09-29T11:20:34.315Z,32.60
2017-09-29T11:23:02.748Z,29.80
2017-09-29T11:25:30.432Z,26.58
2017-09-29T11:27:58.004Z,28.80
2017-09-29T11:30:26.396Z,26.40
2017-09-29T11:32:54.031Z,33.85
2017-09-29T11:35:21.692Z,30.70
2017-09-29T11:37:50.608Z,31.00
2017-09-29T11:40:18.970Z,30.45
2017-09-29T11:42:46.568Z,25.92
2017-09-29T11:45:15.013Z,31.43
2017-09-29T11:47:42.608Z,30.92
2017-09-29T11:50:10.231Z,30.67
2017-09-29T11:52:37.888Z,34.30
2017-09-29T11:55:05.460Z,30.95
2017-09-29T11:57:33.032Z,30.33
2017-09-29T12:00:02.929Z,29.92
2017-09-29T12:02:30.500Z,32.87
2017-09-29T12:04:59.085Z,31.57
2017-09-29T12:07:27.424Z,33.13
2017-09-29T12:09:54.997Z,33.37
2017-09-29T12:12:22.601Z,32.93
2017-09-29T12:14:50.952Z,31.00
2017-09-29T12:17:18.617Z,27.87
2017-09-29T12:19:46.197Z,25.50
2017-09-29T12:22:14.576Z,25.65
2017-09-29T12:24:42.914Z,30.47
2017-09-29T12:27:10.547Z,28.17
2017-09-29T12:29:38.115Z,23.77
2017-09-29T12:32:05.720Z,28.30
2017-09-29T12:34:33.360Z,25.33
2017-09-29T12:37:02.869Z,23.84
2017-09-29T12:39:30.459Z,28.08
2017-09-29T12:41:58.792Z,30.73
2017-09-29T12:44:26.392Z,24.43
2017-09-29T12:46:53.964Z,21.55
2017-09-29T12:49:22.328Z,24.47
2017-09-29T12:51:49.910Z,24.23
2017-09-29T12:54:18.280Z,23.63
2017-09-29T12:56:46.619Z,21.98
2017-09-29T12:59:14.207Z,25.83
2017-09-29T13:01:41.868Z,24.70
2017-09-29T13:04:09.440Z,20.97
2017-09-29T13:06:37.804Z,21.15
2017-09-29T13:09:06.141Z,21.75
2017-09-29T13:11:33.735Z,24.65
2017-09-29T13:14:02.228Z,22.98
2017-09-29T13:16:30.592Z,25.50
2017-09-29T13:18:58.276Z,23.75
2017-09-29T13:21:25.882Z,22.27
2017-09-29T13:23:53.781Z,26.87
2017-09-29T13:26:21.525Z,28.60
2017-09-29T13:28:49.094Z,28.83
2017-09-29T13:31:16.691Z,26.83
2017-09-29T13:33:45.071Z,28.60
2017-09-29T13:36:12.851Z,28.13
2017-09-29T13:38:41.195Z,30.27
2017-09-29T13:41:08.770Z,31.20
2017-09-29T13:43:36.364Z,29.70
2017-09-29T13:46:03.940Z,27.00
2017-09-29T13:48:31.536Z,31.17
2017-09-29T13:50:59.101Z,31.03
2017-09-29T13:53:26.780Z,32.13
2017-09-29T13:55:54.439Z,31.03
2017-09-29T13:58:22.093Z,31.27
2017-09-29T14:00:49.660Z,29.83
2017-09-29T14:03:18.020Z,30.63
2017-09-29T14:05:45.600Z,33.73
2017-09-29T14:08:15.009Z,33.17
2017-09-29T14:10:42.663Z,34.63
2017-09-29T14:13:10.227Z,30.27
2017-09-29T14:15:39.328Z,32.27
2017-09-29T14:18:06.992Z,31.77
2017-09-29T14:20:34.653Z,35.40
2017-09-29T14:23:03.828Z,36.47
2017-09-29T14:25:31.507Z,41.40
2017-09-29T14:27:59.080Z,31.93
2017-09-29T14:30:27.755Z,39.47
2017-09-29T14:32:56.833Z,38.83
2017-09-29T14:35:24.416Z,35.70
2017-09-29T14:37:52.076Z,37.07
2017-09-29T14:40:19.665Z,33.30
2017-09-29T14:42:48.427Z,40.03
2017-09-29T14:45:16.013Z,34.97
2017-09-29T14:47:44.351Z,36.17
2017-09-29T14:50:12.032Z,32.97
2017-09-29T14:52:40.407Z,30.57
2017-09-29T14:55:08.000Z,33.50
2017-09-29T14:57:35.564Z,33.57
2017-09-29T15:00:04.736Z,39.10
2017-09-29T15:02:32.307Z,41.30
2017-09-29T15:05:01.594Z,37.17
2017-09-29T15:07:29.164Z,32.87
2017-09-29T15:09:57.540Z,36.07
2017-09-29T15:12:25.916Z,35.43
2017-09-29T15:14:53.571Z,36.40
2017-09-29T15:17:21.236Z,38.73
2017-09-29T15:19:48.808Z,40.67
2017-09-29T15:22:17.172Z,39.77
2017-09-29T15:24:44.744Z,35.17
2017-09-29T15:27:13.213Z,41.05
2017-09-29T15:29:40.875Z,41.43
2017-09-29T15:32:08.544Z,36.15
2017-09-29T15:34:36.314Z,47.57
2017-09-29T15:37:04.661Z,31.90
2017-09-29T15:39:32.245Z,34.70
2017-09-29T15:42:01.536Z,33.03
2017-09-29T15:44:29.128Z,38.37
2017-09-29T15:46:57.464Z,33.73
2017-09-29T15:49:25.061Z,36.73
2017-09-29T15:51:53.395Z,39.93
2017-09-29T15:54:20.989Z,44.73
2017-09-29T15:56:48.564Z,46.93
2017-09-29T15:59:16.937Z,40.65
2017-09-29T16:01:45.305Z,41.07
2017-09-29T16:04:13.073Z,40.87
2017-09-29T16:06:41.420Z,48.57
2017-09-29T16:09:08.991Z,43.20
2017-09-29T16:11:36.579Z,42.33
2017-09-29T16:14:04.920Z,44.67
2017-09-29T16:16:32.532Z,40.83
2017-09-29T16:19:01.812Z,143.77
2017-09-29T16:21:29.409Z,103.03
2017-09-29T16:23:57.963Z,55.07
2017-09-29T16:26:26.330Z,45.57
2017-09-29T16:28:53.896Z,51.33
2017-09-29T16:31:21.467Z,34.60
2017-09-29T16:33:49.824Z,39.20
2017-09-29T16:36:17.404Z,37.43
2017-09-29T16:38:45.776Z,36.00
2017-09-29T16:41:13.445Z,35.47
2017-09-29T16:43:41.785Z,54.27
2017-09-29T16:46:09.480Z,35.37
2017-09-29T16:48:37.140Z,45.22
2017-09-29T16:51:04.731Z,49.50
2017-09-29T16:53:32.302Z,63.43
2017-09-29T16:55:59.892Z,80.73
2017-09-29T16:58:27.470Z,63.93
2017-09-29T17:00:55.085Z,47.50
2017-09-29T17:03:22.661Z,36.37
2017-09-29T17:05:50.235Z,59.60
2017-09-29T17:08:17.840Z,60.43
2017-09-29T17:10:46.208Z,40.57
2017-09-29T17:13:13.811Z,45.08
2017-09-29T17:15:41.385Z,69.60
2017-09-29T17:18:09.151Z,51.42
2017-09-29T17:20:36.723Z,49.17
2017-09-29T17:23:08.947Z,48.67
2017-09-29T17:25:37.304Z,59.23
2017-09-29T17:28:04.972Z,47.97
2017-09-29T17:30:32.541Z,62.60
2017-09-29T17:33:01.820Z,61.93
2017-09-29T17:35:29.421Z,64.57
2017-09-29T17:37:56.990Z,60.17
2017-09-29T17:40:24.587Z,47.67
2017-09-29T17:42:52.161Z,54.27
2017-09-29T17:45:19.836Z,52.17
2017-09-29T17:47:47.403Z,58.10
2017-09-29T17:50:15.760Z,56.43
2017-09-29T17:52:43.332Z,64.00
2017-09-29T17:55:10.998Z,57.53
2017-09-29T17:57:38.571Z,62.27
2017-09-29T18:00:06.926Z,67.73
2017-09-29T18:02:34.600Z,81.10
2017-09-29T18:05:05.020Z,70.97
2017-09-29T18:07:32.600Z,59.80
2017-09-29T18:10:01.885Z,58.83
2017-09-29T18:12:30.368Z,59.33
2017-09-29T18:14:57.940Z,84.13
2017-09-29T18:17:26.304Z,64.50
2017-09-29T18:19:53.867Z,64.23
2017-09-29T18:22:21.492Z,57.03
2017-09-29T18:24:49.091Z,51.30
2017-09-29T18:27:18.392Z,55.33
2017-09-29T18:29:45.959Z,53.83
2017-09-29T18:32:13.552Z,56.70
2017-09-29T18:34:41.157Z,62.20
2017-09-29T18:37:08.840Z,61.73
2017-09-29T18:39:36.436Z,72.40
2017-09-29T18:42:05.320Z,64.18
2017-09-29T18:44:33.509Z,60.50
2017-09-29T18:47:05.676Z,60.38
2017-09-29T18:49:33.277Z,55.33
2017-09-29T18:52:03.391Z,69.85
2017-09-29T18:54:31.072Z,66.53
2017-09-29T18:56:59.404Z,70.27
2017-09-29T18:59:27.001Z,70.87
2017-09-29T19:01:54.569Z,61.90
2017-09-29T19:04:23.668Z,69.70
2017-09-29T19:06:51.237Z,74.50
2017-09-29T19:09:18.896Z,68.23
2017-09-29T19:11:46.487Z,70.60
2017-09-29T19:14:14.060Z,65.43
2017-09-29T19:16:41.656Z,72.97
2017-09-29T19:19:09.228Z,78.53
2017-09-29T19:21:36.861Z,78.27
2017-09-29T19:24:04.436Z,78.97
2017-09-29T19:26:32.040Z,73.73
2017-09-29T19:29:01.305Z,78.23
2017-09-29T19:31:28.900Z,72.17
2017-09-29T19:33:57.916Z,119.43
2017-09-29T19:36:30.067Z,89.90
2017-09-29T19:38:58.604Z,85.40
2017-09-29T19:41:28.668Z,80.80
2017-09-29T19:43:56.624Z,70.70
2017-09-29T19:46:24.902Z,73.57
2017-09-29T19:48:52.556Z,71.13
2017-09-29T19:51:20.299Z,85.40
2017-09-29T19:53:48.064Z,73.57
2017-09-29T19:56:15.749Z,68.70
2017-09-29T19:58:43.413Z,60.63
2017-09-29T20:01:10.993Z,62.80
2017-09-29T20:03:42.899Z,67.37
2017-09-29T20:06:12.229Z,70.30
2017-09-29T20:08:40.108Z,81.07
2017-09-29T20:11:08.464Z,74.85
2017-09-29T20:13:36.132Z,72.27
2017-09-29T20:16:08.376Z,77.00
2017-09-29T20:18:36.095Z,72.13
2017-09-29T20:21:04.584Z,73.97
2017-09-29T20:23:38.238Z,83.00
2017-09-29T20:26:11.104Z,81.80
2017-09-29T20:28:38.896Z,73.53
2017-09-29T20:31:06.549Z,71.40
2017-09-29T20:33:34.139Z,67.72
2017-09-29T20:36:02.826Z,66.43
2017-09-29T20:38:31.797Z,60.60
2017-09-29T20:41:01.916Z,58.73
2017-09-29T20:43:29.555Z,63.73
2017-09-29T20:45:57.153Z,71.43
2017-09-29T20:48:24.824Z,59.80
2017-09-29T20:50:52.415Z,58.13
2017-09-29T20:53:20.753Z,57.87
2017-09-29T20:55:48.433Z,64.23
2017-09-29T20:58:16.809Z,53.07
2017-09-29T21:00:44.405Z,55.77
2017-09-29T21:03:11.976Z,51.53
2017-09-29T21:05:39.569Z,47.50
2017-09-29T21:08:07.149Z,49.20
2017-09-29T21:10:35.532Z,51.20
2017-09-29T21:13:05.212Z,59.17
2017-09-29T21:15:32.776Z,53.23
2017-09-29T21:18:02.924Z,69.78
2017-09-29T21:20:30.586Z,65.83
2017-09-29T21:22:58.252Z,49.90
2017-09-29T21:25:25.820Z,70.43
2017-09-29T21:27:54.181Z,55.87
2017-09-29T21:30:21.772Z,49.90
2017-09-29T21:32:50.129Z,44.57
2017-09-29T21:35:17.709Z,55.53
2017-09-29T21:37:46.062Z,54.03
2017-09-29T21:40:13.636Z,50.07
2017-09-29T21:42:42.390Z,53.10
2017-09-29T21:45:10.124Z,54.13
2017-09-29T21:47:37.693Z,54.07
2017-09-29T21:50:05.289Z,47.80
2017-09-29T21:52:32.860Z,52.47
2017-09-29T21:55:02.140Z,49.13
2017-09-29T21:57:29.796Z,52.17
2017-09-29T21:59:57.481Z,54.03
2017-09-29T22:02:25.436Z,53.33
2017-09-29T22:04:53.152Z,52.20
2017-09-29T22:07:20.725Z,52.85
2017-09-29T22:09:48.345Z,57.77
2017-09-29T22:12:15.919Z,54.47
2017-09-29T22:14:44.297Z,52.33
2017-09-29T22:17:12.636Z,58.10
2017-09-29T22:19:40.203Z,56.53
2017-09-29T22:22:07.875Z,51.65
2017-09-29T22:24:35.444Z,53.07
2017-09-29T22:27:04.948Z,52.77
2017-09-29T22:29:32.604Z,56.70
2017-09-29T22:32:01.119Z,55.13
2017-09-29T22:34:29.456Z,61.07
2017-09-29T22:36:57.137Z,63.50
2017-09-29T22:39:24.708Z,62.83
2017-09-29T22:41:53.238Z,63.13
2017-09-29T22:44:20.812Z,56.90
2017-09-29T22:46:48.385Z,66.43
2017-09-29T22:49:20.716Z,56.50
2017-09-29T22:51:49.296Z,55.63
2017-09-29T22:54:16.896Z,52.22
2017-09-29T22:56:44.464Z,56.43
2017-09-29T22:59:12.140Z,61.80
2017-09-29T23:01:39.812Z,67.20
2017-09-29T23:04:07.384Z,58.42
2017-09-29T23:06:35.744Z,60.07
2017-09-29T23:09:04.744Z,58.67
2017-09-29T23:11:32.400Z,61.40
2017-09-29T23:13:59.964Z,67.30
2017-09-29T23:16:27.588Z,63.17
2017-09-29T23:18:55.352Z,66.13
2017-09-29T23:21:22.923Z,62.75
2017-09-29T23:23:50.800Z,65.50
2017-09-29T23:26:18.484Z,65.68
2017-09-29T23:28:46.072Z,65.83
2017-09-29T23:31:13.644Z,60.23
2017-09-29T23:33:41.236Z,62.97
2017-09-29T23:36:08.814Z,57.60
2017-09-29T23:38:36.400Z,58.57
2017-09-29T23:41:04.736Z,66.28
2017-09-29T23:43:32.328Z,64.17
2017-09-29T23:46:00.820Z,59.47
2017-09-29T23:48:29.383Z,65.70
2017-09-29T23:50:56.952Z,78.00
2017-09-29T23:53:24.520Z,86.10
2017-09-29T23:55:52.880Z,65.97
2017-09-29T23:58:20.449Z,81.45
